Time;durP1;ratioP1;P1;durP2;ratioP2;P2;SDS_P1;SDS_P2;PMS_P1;PMS_P2;Temp;Humidity;BMP_temperature;BMP_pressure;BME280_temperature;BME280_humidity;BME280_pressure;Samples;Min_cycle;Max_cycle;Signal;HPM_P1;HPM_P2
2023/11/05 00:00:43;;;;;;;0.50;0.43;;;8.30;99.90;;;;;;5091930;28;20613;-75
2023/11/05 00:03:09;;;;;;;0.50;0.50;;;8.40;99.90;;;;;;5090749;28;20621;-75
2023/11/05 00:05:36;;;;;;;3.00;1.03;;;8.40;99.90;;;;;;5089658;28;20617;-75
2023/11/05 00:08:03;;;;;;;0.57;0.40;;;8.40;99.90;;;;;;5089123;28;20731;-75
2023/11/05 00:10:30;;;;;;;0.40;0.37;;;8.50;99.90;;;;;;5089877;28;21196;-75
2023/11/05 00:12:56;;;;;;;1.03;0.40;;;8.40;99.90;;;;;;5101985;28;20628;-75
2023/11/05 00:15:26;;;;;;;0.40;0.30;;;8.40;99.90;;;;;;5089241;28;20639;-75
2023/11/05 00:17:52;;;;;;;0.30;0.20;;;8.30;99.90;;;;;;5088815;28;21026;-75
2023/11/05 00:20:20;;;;;;;0.40;0.33;;;8.40;99.90;;;;;;5086735;28;20625;-75
2023/11/05 00:22:46;;;;;;;0.60;0.30;;;8.30;99.90;;;;;;5089890;28;20959;-75
2023/11/05 00:25:13;;;;;;;0.40;0.30;;;8.30;99.90;;;;;;5098322;28;21032;-75
2023/11/05 00:27:40;;;;;;;1.30;0.60;;;8.40;99.90;;;;;;5091208;28;20970;-75
2023/11/05 00:30:08;;;;;;;0.30;0.20;;;8.40;99.90;;;;;;5094548;28;20902;-75
2023/11/05 00:32:36;;;;;;;0.40;0.40;;;8.30;99.90;;;;;;5089720;28;21030;-75
2023/11/05 00:35:03;;;;;;;0.50;0.50;;;8.30;99.90;;;;;;5087596;28;20653;-75
2023/11/05 00:37:30;;;;;;;1.00;0.30;;;8.40;99.90;;;;;;5096161;28;20617;-76
2023/11/05 00:39:56;;;;;;;3.40;0.82;;;8.40;99.90;;;;;;5088346;28;20633;-75
2023/11/05 00:42:23;;;;;;;2.13;0.40;;;8.40;99.90;;;;;;5090385;28;20466;-75
2023/11/05 00:44:50;;;;;;;0.40;0.30;;;8.40;99.90;;;;;;5088874;28;20679;-75
2023/11/05 00:47:17;;;;;;;0.40;0.23;;;8.30;99.90;;;;;;5094119;28;20621;-75
2023/11/05 00:49:45;;;;;;;0.47;0.30;;;8.40;99.90;;;;;;5093310;28;20726;-75
2023/11/05 00:52:12;;;;;;;0.70;0.50;;;8.40;99.90;;;;;;5088527;28;20621;-76
2023/11/05 00:54:38;;;;;;;0.70;0.40;;;8.40;99.90;;;;;;5088753;28;20982;-75
2023/11/05 00:57:05;;;;;;;0.67;0.53;;;8.30;99.90;;;;;;5090554;28;21047;-75
2023/11/05 00:59:32;;;;;;;0.43;0.43;;;8.30;99.90;;;;;;5088709;28;20625;-75
2023/11/05 01:01:58;;;;;;;0.30;0.27;;;8.30;99.90;;;;;;5094899;28;20621;-75
2023/11/05 01:04:25;;;;;;;1.07;0.60;;;8.30;99.90;;;;;;5093479;28;20648;-75
2023/11/05 01:06:53;;;;;;;0.40;0.30;;;8.40;99.90;;;;;;5095089;28;20652;-75
2023/11/05 01:09:20;;;;;;;0.63;0.43;;;8.40;99.90;;;;;;5087141;28;20760;-75
2023/11/05 01:11:47;;;;;;;0.70;0.53;;;8.40;99.90;;;;;;5088253;28;20629;-75
2023/11/05 01:14:14;;;;;;;0.80;0.50;;;8.40;99.90;;;;;;5088064;28;20637;-75
2023/11/05 01:16:41;;;;;;;0.30;0.30;;;8.40;99.90;;;;;;5090246;28;21196;-75
2023/11/05 01:19:08;;;;;;;0.30;0.20;;;8.40;99.90;;;;;;5090750;28;20660;-75
2023/11/05 01:21:34;;;;;;;0.50;0.37;;;8.40;99.90;;;;;;5087767;28;20613;-75
2023/11/05 01:24:03;;;;;;;0.40;0.20;;;8.40;99.90;;;;;;5090587;28;20668;-75
2023/11/05 01:26:29;;;;;;;0.43;0.40;;;8.40;99.90;;;;;;5088308;28;20628;-75
2023/11/05 01:28:57;;;;;;;0.40;0.30;;;8.40;99.90;;;;;;5087609;28;20632;-75
2023/11/05 01:31:23;;;;;;;0.30;0.30;;;8.40;99.90;;;;;;5087578;28;20694;-75
2023/11/05 01:33:50;;;;;;;0.93;0.60;;;8.40;99.90;;;;;;5089767;28;20644;-75
2023/11/05 01:36:17;;;;;;;0.40;0.30;;;8.40;99.90;;;;;;5087658;28;20766;-75
2023/11/05 01:38:44;;;;;;;0.30;0.20;;;8.40;99.90;;;;;;5098454;28;20626;-75
2023/11/05 01:41:12;;;;;;;0.50;0.50;;;8.40;99.90;;;;;;5084090;28;20636;-75
2023/11/05 01:43:39;;;;;;;0.60;0.47;;;8.50;99.90;;;;;;5100045;28;20623;-75
2023/11/05 01:46:06;;;;;;;0.30;0.20;;;8.40;99.90;;;;;;5088366;28;21165;-75
2023/11/05 01:48:32;;;;;;;0.30;0.20;;;8.40;99.90;;;;;;5087348;28;20624;-75
2023/11/05 01:51:02;;;;;;;0.47;0.43;;;8.50;99.90;;;;;;5088379;28;21132;-75
2023/11/05 01:53:29;;;;;;;0.40;0.30;;;8.50;99.90;;;;;;5088882;28;21244;-75
2023/11/05 01:55:57;;;;;;;0.40;0.40;;;8.50;99.90;;;;;;5088055;28;20633;-75
2023/11/05 01:58:26;;;;;;;0.40;0.27;;;8.50;99.90;;;;;;5087835;28;20625;-75
2023/11/05 02:00:52;;;;;;;1.10;0.30;;;8.50;99.90;;;;;;5094545;28;20624;-75
2023/11/05 02:03:19;;;;;;;1.17;0.30;;;8.50;99.90;;;;;;5086204;28;21173;-75
2023/11/05 02:05:46;;;;;;;3.37;0.30;;;8.60;99.90;;;;;;5087201;28;21225;-75
2023/11/05 02:08:13;;;;;;;0.30;0.20;;;8.60;99.90;;;;;;5089226;28;20728;-75
2023/11/05 02:10:41;;;;;;;0.40;0.23;;;8.80;99.90;;;;;;5090190;28;20629;-76
2023/11/05 02:13:08;;;;;;;0.50;0.27;;;8.80;99.90;;;;;;5094167;28;20637;-73
2023/11/05 02:15:38;;;;;;;0.40;0.30;;;8.70;99.90;;;;;;5088962;28;21219;-74
2023/11/05 02:18:05;;;;;;;3.07;0.30;;;8.70;99.90;;;;;;5087035;28;20617;-74
2023/11/05 02:20:32;;;;;;;0.50;0.50;;;8.70;99.90;;;;;;5089207;28;20657;-74
2023/11/05 02:23:04;;;;;;;1.50;0.40;;;8.80;99.90;;;;;;5086805;28;20628;-75
2023/11/05 02:25:34;;;;;;;0.40;0.20;;;8.80;99.90;;;;;;5086756;28;20676;-75
2023/11/05 02:28:02;;;;;;;0.50;0.40;;;8.80;99.90;;;;;;5096611;28;21215;-74
2023/11/05 02:30:30;;;;;;;1.43;0.67;;;8.80;99.90;;;;;;5090863;28;20854;-75
2023/11/05 02:33:00;;;;;;;2.87;0.30;;;8.80;99.90;;;;;;5088217;28;20633;-74
2023/11/05 02:35:28;;;;;;;0.40;0.30;;;8.90;99.90;;;;;;5091493;28;20745;-74
2023/11/05 02:37:56;;;;;;;2.10;0.50;;;8.90;99.90;;;;;;5085274;28;20625;-75
2023/11/05 02:40:24;;;;;;;1.33;0.30;;;9.10;99.90;;;;;;5086344;28;20772;-75
2023/11/05 02:42:54;;;;;;;6.93;0.60;;;9.10;99.90;;;;;;5087580;28;20675;-74
2023/11/05 02:45:22;;;;;;;0.70;0.30;;;9.10;99.90;;;;;;5084459;28;20763;-74
2023/11/05 02:47:50;;;;;;;1.13;0.57;;;9.10;99.90;;;;;;5088638;28;20621;-74
2023/11/05 02:50:18;;;;;;;0.47;0.37;;;9.20;99.60;;;;;;5086793;28;20988;-74
2023/11/05 02:52:46;;;;;;;0.40;0.40;;;9.20;99.20;;;;;;5087100;28;20617;-74
2023/11/05 02:55:13;;;;;;;0.30;0.30;;;9.20;99.30;;;;;;5088479;28;20674;-74
2023/11/05 02:57:40;;;;;;;0.63;0.20;;;9.20;99.50;;;;;;5088998;28;20716;-74
2023/11/05 03:00:10;;;;;;;0.40;0.20;;;9.20;98.90;;;;;;5090429;28;20617;-74
2023/11/05 03:02:37;;;;;;;0.30;0.23;;;9.30;98.90;;;;;;5092014;28;20959;-74
2023/11/05 03:05:05;;;;;;;0.67;0.67;;;9.30;98.70;;;;;;5090905;28;20651;-75
2023/11/05 03:07:32;;;;;;;0.60;0.30;;;9.30;98.70;;;;;;5091066;28;21122;-76
2023/11/05 03:09:59;;;;;;;0.30;0.30;;;9.30;98.50;;;;;;5093371;28;20621;-75
2023/11/05 03:12:26;;;;;;;0.43;0.30;;;9.30;98.50;;;;;;5092927;28;20629;-75
2023/11/05 03:14:53;;;;;;;1.63;0.60;;;9.30;98.40;;;;;;5092421;28;20632;-75
2023/11/05 03:17:22;;;;;;;0.50;0.30;;;9.40;97.90;;;;;;5092936;28;20621;-75
2023/11/05 03:19:51;;;;;;;0.97;0.30;;;9.40;98.00;;;;;;5090466;28;21288;-75
2023/11/05 03:22:19;;;;;;;1.43;0.70;;;9.40;97.90;;;;;;5090842;28;20715;-74
2023/11/05 03:24:48;;;;;;;1.03;0.73;;;9.40;98.40;;;;;;5090195;28;20763;-75
2023/11/05 03:27:15;;;;;;;1.80;0.33;;;9.50;97.90;;;;;;5092426;28;21101;-74
2023/11/05 03:29:43;;;;;;;0.60;0.33;;;9.50;97.50;;;;;;5099311;28;20720;-74
2023/11/05 03:32:11;;;;;;;2.20;0.63;;;9.40;97.70;;;;;;5089934;28;20644;-74
2023/11/05 03:34:40;;;;;;;3.33;0.50;;;9.50;97.20;;;;;;5094091;28;20623;-75
2023/11/05 03:37:07;;;;;;;0.30;0.20;;;9.60;97.00;;;;;;5093806;28;20678;-74
2023/11/05 03:39:34;;;;;;;0.50;0.33;;;9.60;97.20;;;;;;5096372;28;20625;-74
2023/11/05 03:42:03;;;;;;;0.50;0.40;;;9.70;97.20;;;;;;5090208;28;20621;-74
2023/11/05 03:44:31;;;;;;;0.87;0.70;;;9.70;97.10;;;;;;5091111;28;20701;-74
2023/11/05 03:46:59;;;;;;;1.60;0.53;;;9.70;97.10;;;;;;5092419;28;20624;-74
2023/11/05 03:49:27;;;;;;;0.87;0.70;;;9.70;97.30;;;;;;5089734;28;20624;-74
2023/11/05 03:51:59;;;;;;;0.70;0.30;;;9.60;97.00;;;;;;5088790;28;21049;-74
2023/11/05 03:54:26;;;;;;;0.50;0.50;;;9.60;96.80;;;;;;5087508;28;20616;-75
2023/11/05 03:56:54;;;;;;;0.40;0.37;;;9.60;97.30;;;;;;5091109;28;21168;-73
2023/11/05 03:59:21;;;;;;;0.50;0.50;;;9.60;97.20;;;;;;5087709;28;20624;-74
2023/11/05 04:01:49;;;;;;;0.60;0.40;;;9.60;96.90;;;;;;5090610;28;20722;-73
2023/11/05 04:04:16;;;;;;;0.40;0.30;;;9.60;97.10;;;;;;5093305;28;20628;-74
2023/11/05 04:06:43;;;;;;;0.37;0.23;;;9.60;97.20;;;;;;5094818;28;20635;-74
2023/11/05 04:09:12;;;;;;;1.63;0.33;;;9.60;97.30;;;;;;5086123;28;20627;-74
2023/11/05 04:11:39;;;;;;;0.77;0.50;;;9.60;97.00;;;;;;5089025;28;21227;-74
2023/11/05 04:14:05;;;;;;;2.87;0.60;;;9.50;97.00;;;;;;5095861;28;20628;-73
2023/11/05 04:16:32;;;;;;;0.57;0.47;;;9.40;97.40;;;;;;5086958;28;20980;-74
2023/11/05 04:19:20;;;;;;;0.50;0.43;;;9.50;97.30;;;;;;5082339;28;20669;-77
2023/11/05 04:21:49;;;;;;;0.63;0.50;;;9.40;97.50;;;;;;5085674;28;20633;-74
2023/11/05 04:24:18;;;;;;;3.63;0.73;;;9.40;97.20;;;;;;5088632;28;20632;-74
2023/11/05 04:26:44;;;;;;;0.50;0.30;;;9.50;97.10;;;;;;5087942;28;20676;-73
2023/11/05 04:29:11;;;;;;;0.50;0.40;;;9.60;97.20;;;;;;5087929;28;20621;-74
2023/11/05 04:31:38;;;;;;;6.77;0.60;;;9.60;96.80;;;;;;5090728;28;20676;-74
2023/11/05 04:34:05;;;;;;;0.87;0.33;;;9.60;97.00;;;;;;5085412;28;20638;-74
2023/11/05 04:36:34;;;;;;;0.87;0.70;;;9.60;97.00;;;;;;5082880;28;20629;-74
2023/11/05 04:39:00;;;;;;;0.83;0.60;;;9.60;97.10;;;;;;5088063;28;20631;-74
2023/11/05 04:41:29;;;;;;;2.97;0.30;;;9.60;96.80;;;;;;5089398;28;20644;-74
2023/11/05 04:43:55;;;;;;;0.60;0.30;;;9.70;96.50;;;;;;5088515;28;20625;-74
2023/11/05 04:46:22;;;;;;;0.30;0.30;;;9.60;96.70;;;;;;5088615;28;20668;-73
2023/11/05 04:48:49;;;;;;;0.50;0.20;;;9.60;97.20;;;;;;5088228;28;20629;-74
2023/11/05 04:51:16;;;;;;;1.17;0.63;;;9.60;97.00;;;;;;5088641;28;20630;-74
2023/11/05 04:53:44;;;;;;;1.43;0.57;;;9.70;96.80;;;;;;5088622;28;20625;-74
2023/11/05 04:56:16;;;;;;;0.40;0.37;;;9.60;97.30;;;;;;5088084;28;20629;-73
2023/11/05 04:58:44;;;;;;;0.67;0.50;;;9.60;97.40;;;;;;5080333;28;20622;-74
2023/11/05 05:01:11;;;;;;;1.47;0.60;;;9.60;97.40;;;;;;5088689;28;20962;-74
2023/11/05 05:03:38;;;;;;;0.53;0.40;;;9.50;97.20;;;;;;5088655;28;20621;-74
2023/11/05 05:06:06;;;;;;;0.50;0.30;;;9.60;97.40;;;;;;5088166;28;20655;-74
2023/11/05 05:08:33;;;;;;;0.57;0.40;;;9.60;97.50;;;;;;5087699;28;20982;-76
2023/11/05 05:11:00;;;;;;;0.80;0.57;;;9.50;97.70;;;;;;5088169;28;20624;-74
2023/11/05 05:13:26;;;;;;;0.30;0.23;;;9.50;97.80;;;;;;5088358;28;20733;-75
2023/11/05 05:15:55;;;;;;;3.47;0.50;;;9.40;97.90;;;;;;5088233;28;21152;-74
2023/11/05 05:18:21;;;;;;;0.40;0.40;;;9.40;97.90;;;;;;5087475;28;20840;-73
2023/11/05 05:20:48;;;;;;;0.53;0.30;;;9.40;98.10;;;;;;5087404;28;20982;-74
2023/11/05 05:23:15;;;;;;;0.50;0.50;;;9.40;98.10;;;;;;5087262;28;20621;-72
2023/11/05 05:25:42;;;;;;;0.40;0.40;;;9.40;98.10;;;;;;5088139;28;20683;-74
2023/11/05 05:28:10;;;;;;;0.40;0.20;;;9.40;98.00;;;;;;5087561;28;20702;-74
2023/11/05 05:30:37;;;;;;;0.60;0.60;;;9.40;98.10;;;;;;5087972;28;20667;-74
2023/11/05 05:33:05;;;;;;;0.40;0.40;;;9.40;97.90;;;;;;5087404;28;20690;-74
2023/11/05 05:35:32;;;;;;;1.60;0.70;;;9.40;98.10;;;;;;5087678;28;20635;-73
2023/11/05 05:37:58;;;;;;;2.27;0.50;;;9.30;98.60;;;;;;5087227;28;20613;-73
2023/11/05 05:40:26;;;;;;;1.17;0.50;;;9.40;98.30;;;;;;5087942;28;20629;-74
2023/11/05 05:42:53;;;;;;;1.17;0.80;;;9.40;98.30;;;;;;5087680;28;20622;-73
2023/11/05 05:45:19;;;;;;;1.27;0.60;;;9.40;98.40;;;;;;5087679;28;21549;-74
2023/11/05 05:47:46;;;;;;;0.30;0.30;;;9.40;98.50;;;;;;5086679;28;20995;-74
2023/11/05 05:50:15;;;;;;;0.40;0.30;;;9.40;98.50;;;;;;5087306;28;20632;-74
2023/11/05 05:52:42;;;;;;;0.50;0.40;;;9.30;98.60;;;;;;5087374;28;20621;-74
2023/11/05 05:55:10;;;;;;;6.27;1.00;;;9.30;98.80;;;;;;5087587;28;20631;-74
2023/11/05 05:57:37;;;;;;;0.30;0.23;;;9.20;98.80;;;;;;5078298;28;20633;-74
2023/11/05 06:00:04;;;;;;;3.17;0.67;;;9.20;98.90;;;;;;5087715;28;20623;-74
2023/11/05 06:02:31;;;;;;;0.40;0.30;;;9.20;99.10;;;;;;5087301;28;20622;-73
2023/11/05 06:04:58;;;;;;;0.60;0.60;;;9.20;99.40;;;;;;5086260;28;20816;-73
2023/11/05 06:07:31;;;;;;;1.07;0.60;;;9.10;99.20;;;;;;5086709;28;20621;-74
2023/11/05 06:09:57;;;;;;;0.40;0.20;;;9.20;99.30;;;;;;5087261;28;20629;-73
2023/11/05 06:12:25;;;;;;;1.37;0.50;;;9.10;99.30;;;;;;5087246;28;20712;-73
2023/11/05 06:14:51;;;;;;;0.67;0.40;;;9.20;99.40;;;;;;5086773;28;20634;-74
2023/11/05 06:17:19;;;;;;;0.47;0.30;;;9.20;99.50;;;;;;5086759;28;20635;-74
2023/11/05 06:19:45;;;;;;;1.23;0.70;;;9.20;99.50;;;;;;5086634;28;21196;-75
2023/11/05 06:22:12;;;;;;;0.40;0.40;;;9.20;99.40;;;;;;5087067;28;20636;-74
2023/11/05 06:24:41;;;;;;;0.30;0.20;;;9.20;99.50;;;;;;5086186;28;20802;-74
2023/11/05 06:27:08;;;;;;;0.40;0.30;;;9.20;99.50;;;;;;5078479;28;20673;-74
2023/11/05 06:29:35;;;;;;;0.40;0.40;;;9.10;99.60;;;;;;5086874;28;20628;-75
2023/11/05 06:32:02;;;;;;;0.50;0.30;;;9.10;99.70;;;;;;5085969;28;20625;-74
2023/11/05 06:34:29;;;;;;;0.30;0.20;;;9.10;99.80;;;;;;5086063;28;20636;-75
2023/11/05 06:36:56;;;;;;;0.50;0.30;;;9.10;99.80;;;;;;5086646;28;20625;-75
2023/11/05 06:39:23;;;;;;;1.73;0.50;;;9.00;99.90;;;;;;5086412;28;20625;-75
2023/11/05 06:41:51;;;;;;;0.40;0.40;;;9.10;99.90;;;;;;5086773;28;20653;-75
2023/11/05 06:44:18;;;;;;;0.40;0.30;;;9.00;99.90;;;;;;5087011;28;20667;-75
2023/11/05 06:46:44;;;;;;;0.87;0.40;;;9.10;99.90;;;;;;5085886;28;20655;-75
2023/11/05 06:49:11;;;;;;;0.30;0.20;;;9.20;99.90;;;;;;5085903;28;20855;-75
2023/11/05 06:51:38;;;;;;;0.70;0.40;;;9.20;99.90;;;;;;5087031;28;20619;-75
2023/11/05 06:54:06;;;;;;;1.50;0.50;;;9.30;99.90;;;;;;5086774;28;20624;-74
2023/11/05 06:56:33;;;;;;;0.30;0.20;;;9.20;99.90;;;;;;5086628;28;20636;-75
2023/11/05 06:59:02;;;;;;;0.40;0.30;;;9.30;99.90;;;;;;5085889;28;21001;-74
2023/11/05 07:01:29;;;;;;;0.30;0.30;;;9.30;99.90;;;;;;5086281;28;20625;-75
2023/11/05 07:03:57;;;;;;;0.40;0.27;;;9.40;99.90;;;;;;5086447;28;20633;-75
2023/11/05 07:06:24;;;;;;;0.67;0.67;;;9.40;99.90;;;;;;5086080;28;20668;-75
2023/11/05 07:08:50;;;;;;;0.60;0.47;;;9.50;99.90;;;;;;5086173;28;20686;-75
2023/11/05 07:11:17;;;;;;;0.30;0.20;;;9.50;99.90;;;;;;5086433;28;21083;-75
2023/11/05 07:13:44;;;;;;;0.53;0.30;;;9.50;99.90;;;;;;5085855;28;20632;-75
2023/11/05 07:16:12;;;;;;;0.40;0.27;;;9.50;99.90;;;;;;5086077;28;21185;-75
2023/11/05 07:18:39;;;;;;;0.93;0.37;;;9.50;99.90;;;;;;5085710;28;20625;-74
2023/11/05 07:21:11;;;;;;;0.40;0.30;;;9.40;99.90;;;;;;5086287;28;20628;-74
2023/11/05 07:23:38;;;;;;;0.50;0.27;;;9.50;99.90;;;;;;5086525;28;20689;-74
2023/11/05 07:26:05;;;;;;;0.87;0.50;;;9.40;99.90;;;;;;5085706;28;20653;-74
2023/11/05 07:28:32;;;;;;;0.30;0.20;;;9.50;99.90;;;;;;5086067;28;20721;-75
2023/11/05 07:30:58;;;;;;;0.40;0.40;;;9.50;99.90;;;;;;5086314;28;20621;-74
2023/11/05 07:33:26;;;;;;;0.30;0.20;;;9.60;99.90;;;;;;5086483;28;20728;-73
2023/11/05 07:35:53;;;;;;;0.57;0.33;;;9.70;99.90;;;;;;5085805;28;20625;-74
2023/11/05 07:38:21;;;;;;;0.50;0.30;;;9.80;99.90;;;;;;5085822;28;20625;-75
2023/11/05 07:40:48;;;;;;;0.40;0.30;;;9.80;99.90;;;;;;5086188;28;20712;-74
2023/11/05 07:43:15;;;;;;;0.30;0.20;;;9.70;99.90;;;;;;5086549;28;20656;-74
2023/11/05 07:45:42;;;;;;;0.30;0.30;;;9.80;99.90;;;;;;5089315;28;20625;-74
2023/11/05 07:48:08;;;;;;;0.30;0.30;;;9.90;99.90;;;;;;5089120;28;21246;-75
2023/11/05 07:50:37;;;;;;;0.40;0.30;;;10.00;99.90;;;;;;5089585;28;21089;-74
2023/11/05 07:53:03;;;;;;;0.47;0.30;;;10.10;99.90;;;;;;5090299;28;20624;-75
2023/11/05 07:55:30;;;;;;;0.30;0.20;;;10.20;99.90;;;;;;5089583;28;20631;-75
2023/11/05 07:57:57;;;;;;;0.30;0.30;;;10.20;99.60;;;;;;5089344;28;20628;-74
2023/11/05 08:00:24;;;;;;;0.40;0.20;;;10.30;99.60;;;;;;5089686;28;20625;-75
2023/11/05 08:02:51;;;;;;;0.40;0.30;;;10.50;99.20;;;;;;5089705;28;20628;-74
2023/11/05 08:05:17;;;;;;;0.60;0.20;;;10.60;98.80;;;;;;5089353;28;20623;-75
2023/11/05 08:07:46;;;;;;;0.40;0.20;;;10.50;98.50;;;;;;5088661;28;21299;-75
2023/11/05 08:10:13;;;;;;;1.13;0.50;;;10.80;98.30;;;;;;5089350;28;20694;-74
2023/11/05 08:12:40;;;;;;;0.30;0.20;;;10.90;98.40;;;;;;5089587;28;20628;-75
2023/11/05 08:15:09;;;;;;;0.40;0.30;;;11.00;98.60;;;;;;5089345;28;20640;-74
2023/11/05 08:17:36;;;;;;;0.30;0.20;;;11.00;98.50;;;;;;5088966;28;20625;-75
2023/11/05 08:20:04;;;;;;;0.30;0.30;;;11.00;98.30;;;;;;5089124;28;20981;-74
2023/11/05 08:22:31;;;;;;;0.40;0.20;;;11.10;99.10;;;;;;5088615;28;20984;-74
2023/11/05 08:24:59;;;;;;;0.30;0.20;;;11.10;98.60;;;;;;5089193;28;20621;-74
2023/11/05 08:27:26;;;;;;;0.30;0.20;;;11.20;98.60;;;;;;5088895;28;20674;-74
2023/11/05 08:29:53;;;;;;;1.07;0.40;;;11.10;98.80;;;;;;5089339;28;20624;-74
2023/11/05 08:32:21;;;;;;;0.40;0.30;;;11.20;99.20;;;;;;5089081;28;20628;-74
2023/11/05 08:34:48;;;;;;;0.40;0.30;;;11.20;98.60;;;;;;5088827;28;20628;-74
2023/11/05 08:37:15;;;;;;;0.30;0.20;;;11.20;99.00;;;;;;5088494;28;20726;-74
2023/11/05 08:39:42;;;;;;;0.30;0.20;;;11.20;98.40;;;;;;5089247;28;20635;-74
2023/11/05 08:42:10;;;;;;;0.40;0.40;;;11.20;98.40;;;;;;5088828;28;21178;-75
2023/11/05 08:44:39;;;;;;;0.30;0.20;;;11.30;98.80;;;;;;5088727;28;21166;-75
2023/11/05 08:47:06;;;;;;;0.30;0.20;;;11.40;98.90;;;;;;5088035;28;20702;-74
2023/11/05 08:49:35;;;;;;;0.40;0.20;;;11.50;98.30;;;;;;5088093;28;20610;-74
2023/11/05 08:52:04;;;;;;;0.60;0.30;;;11.60;98.10;;;;;;5088625;28;21193;-74
2023/11/05 08:54:33;;;;;;;0.60;0.40;;;11.60;97.70;;;;;;5088928;28;20720;-74
2023/11/05 08:57:02;;;;;;;0.40;0.30;;;11.50;97.70;;;;;;5087695;28;20634;-74
2023/11/05 08:59:30;;;;;;;0.60;0.40;;;11.40;97.90;;;;;;5088599;28;20723;-74
2023/11/05 09:01:58;;;;;;;0.30;0.20;;;11.30;97.70;;;;;;5088150;28;21166;-73
2023/11/05 09:04:25;;;;;;;0.40;0.20;;;11.20;98.00;;;;;;5088528;28;21474;-73
2023/11/05 09:06:52;;;;;;;2.10;0.20;;;11.20;98.10;;;;;;5088224;28;20669;-74
2023/11/05 09:09:19;;;;;;;0.30;0.20;;;11.30;98.20;;;;;;5088078;28;20732;-74
2023/11/05 09:11:46;;;;;;;0.33;0.27;;;11.60;98.50;;;;;;5088268;28;20733;-74
2023/11/05 09:14:13;;;;;;;0.50;0.27;;;11.60;97.40;;;;;;5088110;28;20994;-74
2023/11/05 09:16:41;;;;;;;0.60;0.40;;;11.60;97.30;;;;;;5087662;28;21012;-74
2023/11/05 09:19:08;;;;;;;0.30;0.20;;;11.70;97.40;;;;;;5087735;28;20938;-74
2023/11/05 09:21:38;;;;;;;0.30;0.20;;;11.60;97.40;;;;;;5088242;28;20625;-74
2023/11/05 09:24:05;;;;;;;1.43;0.63;;;11.80;97.30;;;;;;5080183;28;20716;-74
2023/11/05 09:26:32;;;;;;;0.60;0.50;;;11.90;96.90;;;;;;5088022;28;20661;-74
2023/11/05 09:28:58;;;;;;;0.40;0.20;;;12.10;97.30;;;;;;5087329;28;20628;-76
2023/11/05 09:31:25;;;;;;;0.47;0.33;;;12.20;96.80;;;;;;5087458;28;20627;-73
2023/11/05 09:33:54;;;;;;;0.40;0.40;;;12.20;96.40;;;;;;5087944;28;20617;-75
2023/11/05 09:36:20;;;;;;;1.17;0.43;;;12.30;96.50;;;;;;5087870;28;20621;-74
2023/11/05 09:38:47;;;;;;;0.37;0.23;;;12.30;96.40;;;;;;5087250;28;20655;-73
2023/11/05 09:41:18;;;;;;;0.30;0.20;;;12.50;96.40;;;;;;5087555;28;20621;-74
2023/11/05 09:43:48;;;;;;;0.40;0.30;;;12.50;95.50;;;;;;5087155;28;20724;-75
2023/11/05 09:46:15;;;;;;;2.60;0.50;;;12.40;96.00;;;;;;5087417;28;20633;-74
2023/11/05 09:48:42;;;;;;;0.40;0.30;;;12.20;97.70;;;;;;5087133;28;20731;-74
2023/11/05 09:51:12;;;;;;;0.37;0.23;;;12.00;97.80;;;;;;5084685;28;20728;-74
2023/11/05 09:53:39;;;;;;;2.40;0.40;;;11.90;98.20;;;;;;5087340;28;21033;-74
2023/11/05 09:56:07;;;;;;;0.50;0.30;;;11.80;98.10;;;;;;5087017;28;20823;-74
2023/11/05 09:58:33;;;;;;;0.60;0.40;;;11.80;98.90;;;;;;5086862;28;20709;-74
2023/11/05 10:01:04;;;;;;;0.40;0.30;;;12.00;99.00;;;;;;5087718;28;20627;-74
2023/11/05 10:03:31;;;;;;;0.60;0.30;;;12.10;98.50;;;;;;5087775;28;20640;-74
2023/11/05 10:05:58;;;;;;;0.60;0.30;;;12.10;97.90;;;;;;5087146;28;20617;-74
2023/11/05 10:08:28;;;;;;;0.30;0.27;;;12.10;97.90;;;;;;5086182;28;20783;-74
2023/11/05 10:10:58;;;;;;;0.40;0.20;;;12.10;98.60;;;;;;5087043;28;20733;-74
2023/11/05 10:13:26;;;;;;;2.20;1.07;;;12.20;99.50;;;;;;5087424;28;20737;-74
2023/11/05 10:15:53;;;;;;;0.43;0.43;;;12.10;99.90;;;;;;5080166;28;20731;-75
2023/11/05 10:18:21;;;;;;;0.60;0.30;;;12.00;99.90;;;;;;5086779;28;20629;-74
2023/11/05 10:20:50;;;;;;;0.40;0.30;;;12.00;99.90;;;;;;5086990;28;20625;-74
2023/11/05 10:23:17;;;;;;;0.40;0.27;;;11.70;99.90;;;;;;5086371;28;20998;-74
2023/11/05 10:25:48;;;;;;;0.97;0.53;;;11.80;99.90;;;;;;5086989;28;20721;-74
2023/11/05 10:28:15;;;;;;;1.80;0.40;;;11.80;99.90;;;;;;5086617;28;20661;-75
2023/11/05 10:30:45;;;;;;;0.43;0.40;;;11.80;99.90;;;;;;5087018;28;20629;-75
2023/11/05 10:33:13;;;;;;;0.50;0.50;;;11.80;99.90;;;;;;5078725;28;20618;-75
2023/11/05 10:35:41;;;;;;;0.30;0.30;;;11.80;99.90;;;;;;5086196;28;20623;-75
2023/11/05 10:38:08;;;;;;;0.50;0.40;;;11.60;99.90;;;;;;5086465;28;21169;-75
2023/11/05 10:40:35;;;;;;;0.40;0.40;;;11.70;99.90;;;;;;5086913;28;20727;-75
2023/11/05 10:43:04;;;;;;;0.30;0.30;;;11.70;99.90;;;;;;5086719;28;20620;-75
2023/11/05 10:45:32;;;;;;;2.70;0.40;;;11.50;99.90;;;;;;5086630;28;20625;-75
2023/11/05 10:47:59;;;;;;;1.30;1.20;;;11.60;99.90;;;;;;5086034;28;20649;-74
2023/11/05 10:50:29;;;;;;;0.70;0.57;;;11.60;99.90;;;;;;5086121;28;20613;-77
2023/11/05 10:52:59;;;;;;;1.00;0.47;;;11.60;99.90;;;;;;5086831;28;21231;-75
2023/11/05 10:55:34;;;;;;;0.40;0.37;;;11.60;99.90;;;;;;5086588;28;20624;-75
2023/11/05 10:58:02;;;;;;;0.40;0.30;;;11.60;99.90;;;;;;5085936;28;20620;-75
2023/11/05 11:00:55;;;;;;;0.40;0.40;;;11.50;99.90;;;;;;5086570;28;20627;-75
2023/11/05 11:03:23;;;;;;;0.40;0.40;;;11.40;99.90;;;;;;5083177;28;20684;-75
2023/11/05 11:05:59;;;;;;;0.53;0.40;;;11.50;99.90;;;;;;5086363;28;20622;-75
2023/11/05 11:08:29;;;;;;;0.50;0.40;;;11.40;99.90;;;;;;5086042;28;20668;-75
2023/11/05 11:11:13;;;;;;;0.30;0.30;;;11.30;99.90;;;;;;5086651;28;20621;-75
2023/11/05 11:13:50;;;;;;;0.40;0.40;;;11.40;99.90;;;;;;5086489;28;21553;-75
2023/11/05 11:16:26;;;;;;;0.40;0.27;;;11.50;99.90;;;;;;5086442;28;20636;-75
2023/11/05 11:18:54;;;;;;;0.30;0.20;;;11.50;99.90;;;;;;5086248;28;21191;-75
2023/11/05 11:21:23;;;;;;;0.40;0.30;;;11.40;99.90;;;;;;5090390;28;20710;-75
2023/11/05 11:23:50;;;;;;;0.40;0.33;;;11.30;99.90;;;;;;5089766;28;20666;-75
2023/11/05 11:26:22;;;;;;;0.40;0.30;;;11.30;99.90;;;;;;5090107;28;21169;-74
2023/11/05 11:28:57;;;;;;;0.50;0.30;;;11.40;99.90;;;;;;5089783;28;21020;-75
2023/11/05 11:31:26;;;;;;;0.40;0.30;;;11.30;99.90;;;;;;5090405;28;20628;-75
2023/11/05 11:33:53;;;;;;;0.40;0.30;;;11.20;99.90;;;;;;5090255;28;20618;-75
2023/11/05 11:36:20;;;;;;;0.70;0.30;;;11.30;99.90;;;;;;5089315;28;20988;-75
2023/11/05 11:38:48;;;;;;;0.73;0.50;;;11.40;99.90;;;;;;5089724;28;20743;-75
2023/11/05 11:41:15;;;;;;;0.50;0.30;;;11.40;99.90;;;;;;5089987;28;20687;-75
2023/11/05 11:43:41;;;;;;;0.60;0.50;;;11.50;99.90;;;;;;5090103;28;21584;-75
2023/11/05 11:46:08;;;;;;;0.50;0.40;;;11.50;99.90;;;;;;5089990;28;20620;-75
2023/11/05 11:48:38;;;;;;;0.30;0.20;;;11.50;99.90;;;;;;5088988;28;20667;-75
2023/11/05 11:51:06;;;;;;;0.40;0.40;;;11.60;99.90;;;;;;5089975;28;20621;-75
2023/11/05 11:53:35;;;;;;;0.40;0.30;;;11.70;99.90;;;;;;5081889;28;20661;-75
2023/11/05 11:56:02;;;;;;;0.93;0.50;;;11.70;99.90;;;;;;5089929;28;20940;-75
2023/11/05 11:58:29;;;;;;;0.60;0.30;;;11.60;99.90;;;;;;5089196;28;20728;-76
2023/11/05 12:00:57;;;;;;;0.40;0.20;;;11.60;99.90;;;;;;5089596;28;20628;-75
2023/11/05 12:03:26;;;;;;;0.33;0.30;;;11.60;99.90;;;;;;5089021;28;21208;-73
2023/11/05 12:05:54;;;;;;;1.10;0.33;;;11.60;99.90;;;;;;5089674;28;20667;-76
2023/11/05 12:08:38;;;;;;;0.50;0.50;;;11.40;99.90;;;;;;5089299;28;20679;-73
2023/11/05 12:11:07;;;;;;;0.30;0.20;;;11.50;99.90;;;;;;5083174;28;20619;-74
2023/11/05 12:13:34;;;;;;;0.30;0.20;;;11.40;99.90;;;;;;5089109;28;20671;-74
2023/11/05 12:16:03;;;;;;;0.30;0.20;;;11.40;99.90;;;;;;5089167;28;20997;-74
2023/11/05 12:18:31;;;;;;;0.80;0.40;;;11.50;99.90;;;;;;5089117;28;20660;-74
2023/11/05 12:21:00;;;;;;;0.63;0.40;;;11.50;99.90;;;;;;5088964;28;20621;-74
2023/11/05 12:23:27;;;;;;;0.53;0.40;;;11.50;99.90;;;;;;5089571;28;20636;-74
2023/11/05 12:25:58;;;;;;;0.83;0.40;;;11.50;99.90;;;;;;5089438;28;20621;-74
2023/11/05 12:28:25;;;;;;;0.80;0.30;;;11.50;99.90;;;;;;5087943;28;20648;-74
2023/11/05 12:30:52;;;;;;;0.30;0.20;;;11.50;99.90;;;;;;5088013;28;20617;-74
2023/11/05 12:33:23;;;;;;;0.50;0.40;;;11.30;99.90;;;;;;5089386;28;20627;-74
2023/11/05 12:35:50;;;;;;;0.40;0.30;;;11.30;99.90;;;;;;5089137;28;20628;-74
2023/11/05 12:38:18;;;;;;;0.30;0.20;;;11.30;99.90;;;;;;5080273;28;21182;-74
2023/11/05 12:40:45;;;;;;;0.30;0.20;;;11.30;99.90;;;;;;5088305;28;21197;-74
2023/11/05 12:43:12;;;;;;;0.50;0.40;;;11.20;99.90;;;;;;5089016;28;20633;-74
2023/11/05 12:45:39;;;;;;;0.80;0.60;;;11.30;99.90;;;;;;5089030;28;20976;-75
2023/11/05 12:48:07;;;;;;;0.90;0.37;;;11.30;99.90;;;;;;5088026;28;20666;-73
2023/11/05 12:50:34;;;;;;;0.30;0.30;;;11.40;99.90;;;;;;5089304;28;20621;-74
2023/11/05 12:53:01;;;;;;;0.53;0.40;;;11.40;99.90;;;;;;5088532;28;20621;-74
2023/11/05 12:55:30;;;;;;;0.30;0.30;;;11.40;99.90;;;;;;5087921;28;20967;-74